Time,TemperatureF,DewpointF,PressureIn,WindDirection,WindDirectionDegrees,WindSpeedMPH,WindSpeedGustMPH,Humidity,HourlyPrecipIn,Conditions,Clouds,dailyrainin,SoftwareType,DateUTC
2013-07-20 00:04:00,80.2,72.7,29.78,West,270,1.7,-999.0,78,-99.99,,,0.00,Acu-Link.com,2013-07-20 05:04:00,
2013-07-20 00:19:00,80.1,72.2,29.78,SW,225,0.0,-999.0,77,-99.99,,,0.00,Acu-Link.com,2013-07-20 05:19:00,
2013-07-20 00:34:00,80.1,72.6,29.78,West,270,2.7,-999.0,78,-99.99,,,0.00,Acu-Link.com,2013-07-20 05:34:00,
2013-07-20 00:50:00,79.7,73.0,29.79,NW,315,2.7,-999.0,80,-99.99,,,0.00,Acu-Link.com,2013-07-20 05:50:00,
2013-07-20 01:05:00,78.8,72.5,29.78,SSW,202,0.0,-999.0,81,-99.99,,,0.00,Acu-Link.com,2013-07-20 06:05:00,
2013-07-20 01:20:00,78.1,72.9,29.78,South,180,2.7,-999.0,84,-99.99,,,0.00,Acu-Link.com,2013-07-20 06:20:00,
2013-07-20 01:35:00,77.4,71.5,29.78,SSW,202,2.2,-999.0,82,-99.99,,,0.00,Acu-Link.com,2013-07-20 06:35:00,
2013-07-20 01:50:00,77.5,71.9,29.79,SSW,202,0.0,-999.0,83,-99.99,,,0.00,Acu-Link.com,2013-07-20 06:50:00,
2013-07-20 02:05:00,77.4,71.5,29.78,South,180,1.7,-999.0,82,-99.99,,,0.00,Acu-Link.com,2013-07-20 07:05:00,
2013-07-20 02:20:00,77.2,71.3,29.79,West,270,1.1,-999.0,82,-99.99,,,0.00,Acu-Link.com,2013-07-20 07:20:00,
2013-07-20 02:35:00,77.2,71.6,29.78,South,180,2.2,-999.0,83,-99.99,,,0.00,Acu-Link.com,2013-07-20 07:35:00,
2013-07-20 02:50:00,76.8,71.6,29.78,SSW,202,0.0,-999.0,84,-99.99,,,0.00,Acu-Link.com,2013-07-20 07:50:00,
2013-07-20 03:06:00,76.3,71.4,29.78,SW,225,2.2,-999.0,85,-99.99,,,0.00,Acu-Link.com,2013-07-20 08:06:00,
2013-07-20 03:22:00,76.3,71.4,29.79,West,270,2.2,-999.0,85,-99.99,,,0.00,Acu-Link.com,2013-07-20 08:22:00,
2013-07-20 03:37:00,76.1,71.6,29.78,WSW,247,1.7,-999.0,86,-99.99,,,0.00,Acu-Link.com,2013-07-20 08:37:00,
2013-07-20 03:52:00,75.6,71.4,29.78,NE,45,0.0,-999.0,87,-99.99,,,0.00,Acu-Link.com,2013-07-20 08:52:00,
2013-07-20 04:07:00,75.0,71.2,29.78,SSW,202,0.0,-999.0,88,-99.99,,,0.00,Acu-Link.com,2013-07-20 09:07:00,
2013-07-20 04:22:00,74.7,70.9,29.77,SSW,202,0.0,-999.0,88,-99.99,,,0.00,Acu-Link.com,2013-07-20 09:22:00,
2013-07-20 04:37:00,74.3,70.8,29.77,SSW,202,2.2,-999.0,89,-99.99,,,0.00,Acu-Link.com,2013-07-20 09:37:00,
2013-07-20 04:53:00,73.9,70.8,29.77,WNW,292,1.7,-999.0,90,-99.99,,,0.00,Acu-Link.com,2013-07-20 09:53:00,
2013-07-20 05:08:00,73.9,70.8,29.79,East,90,0.0,-999.0,90,-99.99,,,0.00,Acu-Link.com,2013-07-20 10:08:00,
2013-07-20 05:23:00,73.8,70.7,29.78,SW,225,1.7,-999.0,90,-99.99,,,0.00,Acu-Link.com,2013-07-20 10:23:00,
2013-07-20 05:38:00,73.6,70.8,29.78,WSW,247,0.0,-999.0,91,-99.99,,,0.00,Acu-Link.com,2013-07-20 10:38:00,
2013-07-20 05:53:00,73.4,70.6,29.79,West,270,2.2,-999.0,91,-99.99,,,0.00,Acu-Link.com,2013-07-20 10:53:00,
2013-07-20 06:08:00,73.8,71.0,29.80,North,0,0.0,-999.0,91,-99.99,,,0.00,Acu-Link.com,2013-07-20 11:08:00,
2013-07-20 06:23:00,74.7,72.2,29.79,West,270,3.2,-999.0,92,-99.99,,,0.00,Acu-Link.com,2013-07-20 11:23:00,
2013-07-20 06:38:00,75.2,72.7,29.79,NW,315,0.0,-999.0,92,-99.99,,,0.00,Acu-Link.com,2013-07-20 11:38:00,
2013-07-20 06:53:00,75.7,73.2,29.79,ENE,67,0.0,-999.0,92,-99.99,,,0.00,Acu-Link.com,2013-07-20 11:53:00,
2013-07-20 07:09:00,78.3,74.1,29.80,WNW,292,2.2,-999.0,87,-99.99,,,0.00,Acu-Link.com,2013-07-20 12:09:00,
2013-07-20 07:24:00,81.9,75.5,29.80,SW,225,1.7,-999.0,81,-99.99,,,0.00,Acu-Link.com,2013-07-20 12:24:00,
2013-07-20 07:39:00,83.8,75.4,29.79,West,270,1.7,-999.0,76,-99.99,,,0.00,Acu-Link.com,2013-07-20 12:39:00,
2013-07-20 07:54:00,81.5,74.7,29.81,WNW,292,1.7,-999.0,80,-99.99,,,0.00,Acu-Link.com,2013-07-20 12:54:00,
2013-07-20 08:09:00,80.6,74.2,29.81,WNW,292,3.2,-999.0,81,-99.99,,,0.00,Acu-Link.com,2013-07-20 13:09:00,
2013-07-20 08:36:00,72.5,62.5,29.82,NW,315,3.2,-999.0,71,-99.99,,,0.01,Acu-Link.com,2013-07-20 13:36:00,
2013-07-20 08:51:00,73.0,60.5,29.82,WNW,292,1.1,-999.0,65,-99.99,,,0.15,Acu-Link.com,2013-07-20 13:51:00,
2013-07-20 09:06:00,73.6,57.4,29.82,West,270,1.7,-999.0,57,-99.99,,,0.15,Acu-Link.com,2013-07-20 14:06:00,
2013-07-20 09:21:00,74.8,62.2,29.81,WNW,292,2.2,-999.0,65,-99.99,,,0.15,Acu-Link.com,2013-07-20 14:21:00,
2013-07-20 09:36:00,77.4,65.1,29.82,WNW,292,1.7,-999.0,66,-99.99,,,0.15,Acu-Link.com,2013-07-20 14:36:00,
2013-07-20 09:51:00,79.5,65.8,29.83,North,0,6.3,-999.0,63,-99.99,,,0.15,Acu-Link.com,2013-07-20 14:51:00,
2013-07-20 10:06:00,80.2,65.5,29.83,South,180,0.0,-999.0,61,-99.99,,,0.15,Acu-Link.com,2013-07-20 15:06:00,
2013-07-20 10:22:00,85.3,78.4,29.84,SE,135,1.7,-999.0,80,-99.99,,,0.15,Acu-Link.com,2013-07-20 15:22:00,
2013-07-20 10:37:00,83.7,76.5,29.83,West,270,1.7,-999.0,79,-99.99,,,0.15,Acu-Link.com,2013-07-20 15:37:00,
2013-07-20 10:52:00,80.6,72.3,29.84,South,180,0.0,-999.0,76,-99.99,,,0.15,Acu-Link.com,2013-07-20 15:52:00,
2013-07-20 11:07:00,76.5,61.6,29.84,NNE,22,4.7,-999.0,60,-99.99,,,0.26,Acu-Link.com,2013-07-20 16:07:00,
2013-07-20 11:22:00,76.5,34.8,29.84,NNW,337,0.0,-999.0,22,-99.99,,,0.29,Acu-Link.com,2013-07-20 16:22:00,
2013-07-20 11:37:00,75.7,53.4,29.87,East,90,5.8,-999.0,46,-99.99,,,0.29,Acu-Link.com,2013-07-20 16:37:00,
2013-07-20 11:53:00,74.3,60.9,29.86,ESE,112,4.2,-999.0,63,-99.99,,,0.29,Acu-Link.com,2013-07-20 16:53:00,
2013-07-20 12:08:00,73.0,52.7,29.85,East,90,4.7,-999.0,49,-99.99,,,0.33,Acu-Link.com,2013-07-20 17:08:00,
2013-07-20 12:24:00,73.4,67.6,29.83,SSE,157,3.2,-999.0,82,-99.99,,,0.33,Acu-Link.com,2013-07-20 17:24:00,
2013-07-20 12:55:00,76.3,70.7,29.81,WNW,292,2.7,-999.0,83,-99.99,,,0.33,Acu-Link.com,2013-07-20 17:55:00,
2013-07-20 13:14:00,78.4,72.1,29.80,NNE,22,0.0,-999.0,81,-99.99,,,0.33,Acu-Link.com,2013-07-20 18:14:00,
2013-07-20 13:30:00,81.3,73.0,29.81,WNW,292,0.0,-999.0,76,-99.99,,,0.33,Acu-Link.com,2013-07-20 18:30:00,
2013-07-20 13:45:00,79.5,72.4,29.81,North,0,4.7,-999.0,79,-99.99,,,0.33,Acu-Link.com,2013-07-20 18:45:00,
2013-07-20 14:00:00,78.8,71.0,29.83,NNW,337,4.7,-999.0,77,-99.99,,,0.33,Acu-Link.com,2013-07-20 19:00:00,
2013-07-20 14:15:00,80.6,74.6,29.82,NW,315,4.2,-999.0,82,-99.99,,,0.33,Acu-Link.com,2013-07-20 19:15:00,
2013-07-20 14:30:00,83.5,76.3,29.82,North,0,4.2,-999.0,79,-99.99,,,0.33,Acu-Link.com,2013-07-20 19:30:00,
2013-07-20 14:46:00,84.9,76.9,29.81,NNE,22,5.8,-999.0,77,-99.99,,,0.33,Acu-Link.com,2013-07-20 19:46:00,
2013-07-20 15:01:00,84.0,76.0,29.81,NNE,22,4.2,-999.0,77,-99.99,,,0.33,Acu-Link.com,2013-07-20 20:01:00,
2013-07-20 15:16:00,92.5,80.4,29.82,NNW,337,3.7,-999.0,68,-99.99,,,0.33,Acu-Link.com,2013-07-20 20:16:00,
2013-07-20 16:01:00,84.6,77.7,29.80,NNW,337,1.1,-999.0,80,-99.99,,,0.33,Acu-Link.com,2013-07-20 21:01:00,
2013-07-20 16:16:00,84.2,77.3,29.78,NNW,337,3.7,-999.0,80,-99.99,,,0.33,Acu-Link.com,2013-07-20 21:16:00,
2013-07-20 16:32:00,82.9,76.5,29.77,NNE,22,6.8,-999.0,81,-99.99,,,0.33,Acu-Link.com,2013-07-20 21:32:00,
2013-07-20 16:47:00,82.9,76.5,29.77,NNE,22,3.7,-999.0,81,-99.99,,,0.33,Acu-Link.com,2013-07-20 21:47:00,
2013-07-20 17:02:00,82.9,76.5,29.78,North,0,7.3,-999.0,81,-99.99,,,0.33,Acu-Link.com,2013-07-20 22:02:00,
2013-07-20 17:17:00,82.9,76.5,29.78,NNE,22,7.3,-999.0,81,-99.99,,,0.33,Acu-Link.com,2013-07-20 22:17:00,
2013-07-20 17:32:00,82.8,76.4,29.77,NNE,22,7.3,-999.0,81,-99.99,,,0.33,Acu-Link.com,2013-07-20 22:32:00,
2013-07-20 18:02:00,82.2,75.8,29.76,North,0,6.3,-999.0,81,-99.99,,,0.33,Acu-Link.com,2013-07-20 23:02:00,
2013-07-20 18:17:00,82.2,75.8,29.78,NW,315,0.0,-999.0,81,-99.99,,,0.33,Acu-Link.com,2013-07-20 23:17:00,
2013-07-20 18:32:00,82.6,76.2,29.77,NE,45,2.2,-999.0,81,-99.99,,,0.33,Acu-Link.com,2013-07-20 23:32:00,
2013-07-20 18:48:00,81.7,75.3,29.77,ENE,67,3.2,-999.0,81,-99.99,,,0.33,Acu-Link.com,2013-07-20 23:48:00,
2013-07-20 19:03:00,81.1,74.3,29.78,NNE,22,4.2,-999.0,80,-99.99,,,0.33,Acu-Link.com,2013-07-21 00:03:00,
2013-07-20 19:18:00,81.0,74.6,29.78,NNE,22,2.2,-999.0,81,-99.99,,,0.33,Acu-Link.com,2013-07-21 00:18:00,
2013-07-20 19:34:00,80.8,73.7,29.77,NE,45,2.2,-999.0,79,-99.99,,,0.33,Acu-Link.com,2013-07-21 00:34:00,
2013-07-20 20:04:00,79.9,67.1,29.76,SE,135,0.0,-999.0,65,-99.99,,,0.33,Acu-Link.com,2013-07-21 01:04:00,
2013-07-20 20:19:00,79.3,68.2,29.76,ESE,112,2.7,-999.0,69,-99.99,,,0.33,Acu-Link.com,2013-07-21 01:19:00,
2013-07-20 20:34:00,78.8,68.2,29.77,SSE,157,2.7,-999.0,70,-99.99,,,0.33,Acu-Link.com,2013-07-21 01:34:00,
2013-07-20 20:49:00,78.8,68.6,29.78,NE,45,2.2,-999.0,71,-99.99,,,0.33,Acu-Link.com,2013-07-21 01:49:00,
2013-07-20 21:05:00,78.3,68.9,29.77,ENE,67,0.0,-999.0,73,-99.99,,,0.33,Acu-Link.com,2013-07-21 02:05:00,
2013-07-20 21:20:00,78.3,64.6,29.79,NNE,22,3.7,-999.0,63,-99.99,,,0.33,Acu-Link.com,2013-07-21 02:20:00,
2013-07-20 21:50:00,77.5,64.3,29.80,North,0,2.7,-999.0,64,-99.99,,,0.33,Acu-Link.com,2013-07-21 02:50:00,
2013-07-20 22:05:00,77.4,58.9,29.80,South,180,4.7,-999.0,53,-99.99,,,0.33,Acu-Link.com,2013-07-21 03:05:00,
2013-07-20 22:20:00,77.2,61.7,29.81,East,90,1.7,-999.0,59,-99.99,,,0.33,Acu-Link.com,2013-07-21 03:20:00,
2013-07-20 22:35:00,76.8,58.4,29.81,North,0,1.7,-999.0,53,-99.99,,,0.33,Acu-Link.com,2013-07-21 03:35:00,
2013-07-20 22:50:00,77.0,54.6,29.79,NE,45,2.2,-999.0,46,-99.99,,,0.33,Acu-Link.com,2013-07-21 03:50:00,
2013-07-20 23:05:00,76.8,51.3,29.80,NE,45,3.7,-999.0,41,-99.99,,,0.33,Acu-Link.com,2013-07-21 04:05:00,
2013-07-20 23:20:00,76.8,66.3,29.80,ESE,112,3.2,-999.0,70,-99.99,,,0.33,Acu-Link.com,2013-07-21 04:20:00,
2013-07-20 23:36:00,76.8,65.0,29.80,NNE,22,3.2,-999.0,67,-99.99,,,0.33,Acu-Link.com,2013-07-21 04:36:00,
2013-07-20 23:51:00,76.8,67.1,29.81,East,90,4.2,-999.0,72,-99.99,,,0.33,Acu-Link.com,2013-07-21 04:51:00,